createdAt,value
2022-08-07T00:01:44.099Z,2.65
2022-08-07T00:04:06.759Z,2.78
2022-08-07T00:06:36.661Z,2.92
2022-08-07T00:09:17.234Z,2.70
2022-08-07T00:11:56.083Z,2.58
2022-08-07T00:14:29.974Z,2.58
2022-08-07T00:17:01.691Z,2.92
2022-08-07T00:19:34.330Z,3.00
2022-08-07T00:22:24.216Z,3.10
2022-08-07T00:25:01.209Z,3.42
2022-08-07T00:27:51.645Z,3.08
2022-08-07T00:30:27.537Z,3.17
2022-08-07T00:32:58.302Z,3.35
2022-08-07T00:35:26.376Z,3.40
2022-08-07T00:37:53.161Z,4.32
2022-08-07T00:40:39.089Z,4.15
2022-08-07T00:43:09.658Z,4.72
2022-08-07T00:45:37.329Z,4.05
2022-08-07T00:48:08.915Z,4.03
2022-08-07T00:50:50.449Z,4.57
2022-08-07T00:53:18.559Z,4.10
2022-08-07T00:56:00.842Z,4.38
2022-08-07T00:58:29.940Z,4.10
2022-08-07T01:00:56.417Z,4.38
2022-08-07T01:03:55.572Z,4.15
2022-08-07T01:06:09.685Z,4.00
2022-08-07T01:08:42.988Z,4.00
2022-08-07T01:12:09.677Z,4.00
2022-08-07T01:14:04.815Z,4.65
2022-08-07T01:16:31.946Z,3.80
2022-08-07T01:18:58.604Z,3.92
2022-08-07T01:21:26.057Z,4.43
2022-08-07T01:23:55.019Z,4.43
2022-08-07T01:26:22.691Z,4.38
2022-08-07T01:28:53.883Z,4.35
2022-08-07T01:31:21.091Z,4.50
2022-08-07T01:33:56.201Z,4.60
2022-08-07T01:36:33.441Z,4.53
2022-08-07T01:39:09.914Z,5.10
2022-08-07T01:41:38.905Z,4.55
2022-08-07T01:44:07.347Z,4.90
2022-08-07T01:46:34.536Z,4.82
2022-08-07T01:49:02.377Z,5.20
2022-08-07T01:52:03.732Z,5.30
2022-08-07T01:54:32.517Z,4.53
2022-08-07T01:57:24.518Z,4.85
2022-08-07T02:00:03.109Z,5.18
2022-08-07T02:03:18.136Z,5.25
2022-08-07T02:05:47.853Z,5.07
2022-08-07T02:08:23.986Z,4.93
2022-08-07T02:10:55.345Z,4.90
2022-08-07T02:13:27.592Z,4.78
2022-08-07T02:16:14.540Z,5.40
2022-08-07T02:18:46.899Z,4.97
2022-08-07T02:21:16.494Z,5.47
2022-08-07T02:23:43.752Z,5.75
2022-08-07T02:26:32.904Z,6.18
2022-08-07T02:28:58.614Z,5.35
2022-08-07T02:31:28.634Z,5.60
2022-08-07T02:34:10.918Z,5.10
2022-08-07T02:36:38.792Z,5.70
2022-08-07T02:39:16.253Z,5.50
2022-08-07T02:41:50.644Z,5.55
2022-08-07T02:44:21.410Z,6.32
2022-08-07T02:46:52.597Z,6.18
2022-08-07T02:49:55.621Z,6.05
2022-08-07T02:52:09.552Z,5.82
2022-08-07T02:54:41.359Z,6.28
2022-08-07T02:57:12.640Z,5.47
2022-08-07T02:59:45.585Z,6.00
2022-08-07T03:02:22.009Z,6.30
2022-08-07T03:04:49.305Z,5.93
2022-08-07T03:07:16.853Z,6.13
2022-08-07T03:09:51.982Z,6.07
2022-08-07T03:12:22.203Z,6.28
2022-08-07T03:14:52.038Z,5.95
2022-08-07T03:17:19.504Z,6.00
2022-08-07T03:19:54.927Z,5.50
2022-08-07T03:22:24.181Z,5.88
2022-08-07T03:24:57.262Z,5.80
2022-08-07T03:27:30.762Z,5.43
2022-08-07T03:30:10.848Z,5.82
2022-08-07T03:32:49.324Z,6.18
2022-08-07T03:35:26.616Z,6.00
2022-08-07T03:38:01.655Z,5.97
2022-08-07T03:40:36.585Z,5.88
2022-08-07T03:43:03.825Z,5.90
2022-08-07T03:45:39.631Z,6.18
2022-08-07T03:48:11.465Z,6.07
2022-08-07T03:50:38.405Z,6.50
2022-08-07T03:53:06.933Z,5.85
2022-08-07T03:55:58.094Z,6.15
2022-08-07T03:59:04.959Z,5.97
2022-08-07T04:01:11.001Z,6.20
2022-08-07T04:03:49.518Z,6.75
2022-08-07T04:06:38.419Z,6.68
2022-08-07T04:09:05.848Z,6.00
2022-08-07T04:12:23.436Z,5.78
2022-08-07T04:14:38.027Z,6.72
2022-08-07T04:17:20.223Z,6.70
2022-08-07T04:19:54.532Z,5.78
2022-08-07T04:22:27.517Z,6.13
2022-08-07T04:24:56.094Z,5.88
2022-08-07T04:27:25.622Z,6.45
2022-08-07T04:30:01.418Z,5.97
2022-08-07T04:32:34.396Z,6.57
2022-08-07T04:35:05.750Z,6.60
2022-08-07T04:37:52.742Z,6.22
2022-08-07T04:40:20.422Z,5.97
2022-08-07T04:42:46.958Z,6.53
2022-08-07T04:45:44.487Z,6.03
2022-08-07T04:48:11.103Z,6.40
2022-08-07T04:50:41.928Z,5.80
2022-08-07T04:53:40.003Z,6.15
2022-08-07T04:58:10.816Z,5.60
2022-08-07T05:00:11.269Z,5.63
2022-08-07T05:02:16.612Z,6.05
2022-08-07T05:04:53.551Z,6.03
2022-08-07T05:07:30.385Z,6.18
2022-08-07T05:12:52.998Z,5.97
2022-08-07T05:15:25.518Z,5.75
2022-08-07T05:18:08.722Z,6.30
2022-08-07T05:20:40.466Z,6.07
2022-08-07T05:23:30.002Z,5.75
2022-08-07T05:26:15.727Z,6.10
2022-08-07T05:28:48.439Z,6.35
2022-08-07T05:31:18.638Z,6.05
2022-08-07T05:34:01.189Z,6.45
2022-08-07T05:36:35.629Z,5.80
2022-08-07T05:40:04.967Z,6.00
2022-08-07T05:42:01.751Z,5.50
2022-08-07T05:44:30.779Z,5.65
2022-08-07T05:46:57.701Z,5.28
2022-08-07T05:49:27.073Z,5.60
2022-08-07T05:52:07.129Z,5.30
2022-08-07T05:54:53.410Z,5.55
2022-08-07T05:57:21.297Z,5.32
2022-08-07T05:59:57.301Z,6.35
2022-08-07T06:02:29.103Z,5.40
2022-08-07T06:04:59.004Z,5.80
2022-08-07T06:08:09.334Z,5.88
2022-08-07T06:10:15.467Z,5.80
2022-08-07T06:12:42.179Z,5.10
2022-08-07T06:15:10.122Z,5.57
2022-08-07T06:17:53.647Z,5.65
2022-08-07T06:20:25.152Z,5.18
2022-08-07T06:23:02.558Z,4.97
2022-08-07T06:25:54.761Z,5.03
2022-08-07T06:28:28.119Z,4.85
2022-08-07T06:30:55.342Z,5.05
2022-08-07T06:33:22.724Z,4.88
2022-08-07T06:36:13.300Z,4.55
2022-08-07T06:38:35.849Z,4.80
2022-08-07T06:41:02.643Z,4.65
2022-08-07T06:43:39.511Z,4.60
2022-08-07T06:46:11.640Z,4.97
2022-08-07T06:48:42.187Z,4.50
2022-08-07T06:51:15.401Z,4.70
2022-08-07T06:55:27.295Z,4.65
2022-08-07T06:56:49.459Z,4.53
2022-08-07T07:00:12.384Z,4.65
2022-08-07T07:02:09.428Z,4.65
2022-08-07T07:04:38.286Z,5.03
2022-08-07T07:07:58.192Z,4.68
2022-08-07T07:09:57.015Z,4.47
2022-08-07T07:12:48.587Z,4.38
2022-08-07T07:15:23.946Z,4.22
2022-08-07T07:18:14.477Z,4.45
2022-08-07T07:21:03.995Z,4.30
2022-08-07T07:24:06.627Z,3.90
2022-08-07T07:26:35.368Z,3.88
2022-08-07T07:29:39.462Z,4.07
2022-08-07T07:31:56.054Z,3.72
2022-08-07T07:34:27.948Z,3.78
2022-08-07T07:37:14.317Z,4.10
2022-08-07T07:39:52.263Z,4.47
2022-08-07T07:42:25.737Z,4.60
2022-08-07T07:45:01.717Z,3.80
2022-08-07T07:47:29.294Z,3.80
2022-08-07T07:50:34.755Z,4.18
2022-08-07T07:52:47.110Z,3.70
2022-08-07T07:55:14.617Z,3.72
2022-08-07T07:57:51.770Z,3.72
2022-08-07T08:00:28.958Z,3.25
2022-08-07T08:03:05.407Z,3.80
2022-08-07T08:05:42.672Z,3.55
2022-08-07T08:08:36.258Z,3.10
2022-08-07T08:11:09.013Z,3.08
2022-08-07T08:13:54.956Z,2.70
2022-08-07T08:16:26.727Z,3.17
2022-08-07T08:18:56.843Z,2.83
2022-08-07T08:21:55.973Z,3.00
2022-08-07T08:24:57.064Z,3.00
2022-08-07T08:27:36.288Z,2.63
2022-08-07T08:30:07.232Z,2.80
2022-08-07T08:32:41.637Z,2.25
2022-08-07T08:35:14.659Z,2.10
2022-08-07T08:38:01.185Z,2.50
2022-08-07T08:40:36.296Z,1.88
2022-08-07T08:43:10.990Z,1.73
2022-08-07T08:45:58.892Z,1.85
2022-08-07T08:49:05.120Z,2.67
2022-08-07T08:52:12.533Z,2.72
2022-08-07T08:54:34.712Z,1.50
2022-08-07T08:57:05.516Z,1.10
2022-08-07T08:59:42.363Z,0.70
2022-08-07T09:05:18.521Z,0.90
2022-08-07T09:07:58.110Z,0.90
2022-08-07T09:10:44.938Z,0.85
2022-08-07T09:13:37.580Z,0.98
2022-08-07T09:16:23.131Z,0.80
2022-08-07T09:19:44.683Z,0.90
2022-08-07T09:24:27.321Z,0.93
2022-08-07T09:25:18.323Z,0.70
2022-08-07T09:28:00.644Z,0.90
2022-08-07T09:30:34.214Z,0.93
2022-08-07T09:33:05.367Z,0.85
2022-08-07T09:36:04.710Z,0.90
2022-08-07T09:38:50.138Z,1.15
2022-08-07T09:41:36.220Z,1.00
2022-08-07T09:44:58.412Z,1.05
2022-08-07T09:47:58.326Z,1.17
2022-08-07T09:50:34.301Z,1.27
2022-08-07T09:53:09.421Z,1.00
2022-08-07T09:56:03.556Z,0.88
2022-08-07T09:58:52.930Z,0.93
2022-08-07T10:01:53.448Z,0.65
2022-08-07T10:04:47.635Z,0.80
2022-08-07T10:07:57.723Z,0.70
2022-08-07T10:11:59.686Z,0.80
2022-08-07T10:14:31.085Z,0.85
2022-08-07T10:17:26.790Z,0.70
2022-08-07T10:20:06.774Z,0.80
2022-08-07T10:23:03.601Z,0.85
2022-08-07T10:25:52.920Z,0.90
2022-08-07T10:28:51.253Z,0.80
2022-08-07T10:31:50.000Z,0.82
2022-08-07T10:34:39.438Z,0.82
2022-08-07T10:37:26.210Z,0.88
2022-08-07T10:40:14.591Z,0.85
2022-08-07T10:42:57.376Z,0.90
2022-08-07T10:45:58.366Z,0.80
2022-08-07T10:48:35.473Z,1.08
2022-08-07T10:51:57.352Z,0.80
2022-08-07T10:54:53.480Z,0.80
2022-08-07T10:57:46.596Z,0.73
2022-08-07T11:00:39.622Z,0.80
2022-08-07T11:03:20.224Z,0.70
2022-08-07T11:06:00.131Z,0.60
2022-08-07T11:08:49.335Z,0.77
2022-08-07T11:11:37.703Z,0.80
2022-08-07T11:14:44.973Z,0.88
2022-08-07T11:17:11.775Z,0.85
2022-08-07T11:19:46.808Z,0.90
2022-08-07T11:22:37.225Z,0.95
2022-08-07T11:25:42.523Z,0.75
2022-08-07T11:28:21.927Z,0.80
2022-08-07T11:30:51.265Z,0.90
2022-08-07T11:33:53.977Z,0.90
2022-08-07T11:36:30.684Z,0.90
2022-08-07T11:39:14.586Z,0.80
2022-08-07T11:42:03.533Z,0.85
2022-08-07T11:44:57.738Z,0.82
2022-08-07T11:47:59.480Z,0.73
2022-08-07T11:51:41.453Z,0.90
2022-08-07T11:54:17.961Z,0.80
2022-08-07T11:57:14.295Z,0.88
2022-08-07T12:00:10.939Z,0.85
2022-08-07T12:02:59.921Z,0.80
2022-08-07T12:05:49.051Z,0.75
2022-08-07T12:08:34.631Z,0.70
2022-08-07T12:11:20.141Z,0.90
2022-08-07T12:13:54.030Z,0.90
2022-08-07T12:16:35.147Z,0.70
2022-08-07T12:19:14.666Z,1.08
2022-08-07T12:22:38.820Z,0.70
2022-08-07T12:26:03.131Z,0.90
2022-08-07T12:28:34.925Z,0.90
2022-08-07T12:31:09.170Z,0.90
2022-08-07T12:33:56.140Z,0.70
2022-08-07T12:36:33.391Z,0.73
2022-08-07T12:39:09.540Z,0.70
2022-08-07T12:41:52.388Z,0.70
2022-08-07T12:44:20.338Z,0.70
2022-08-07T12:47:11.162Z,0.77
2022-08-07T12:49:51.455Z,0.70
2022-08-07T12:52:34.093Z,0.90
2022-08-07T12:55:17.418Z,0.88
2022-08-07T12:58:02.048Z,0.63
2022-08-07T13:00:50.156Z,0.80
2022-08-07T13:04:02.086Z,0.75
2022-08-07T13:06:36.905Z,0.98
2022-08-07T13:10:19.562Z,0.88
2022-08-07T13:12:59.267Z,0.68
2022-08-07T13:15:37.495Z,0.90
2022-08-07T13:18:28.384Z,0.70
2022-08-07T13:21:07.100Z,0.90
2022-08-07T13:24:02.901Z,0.82
2022-08-07T13:26:35.701Z,1.38
2022-08-07T13:29:34.781Z,0.90
2022-08-07T13:32:32.584Z,0.82
2022-08-07T13:35:08.683Z,0.80
2022-08-07T13:38:01.186Z,0.80
2022-08-07T13:40:35.945Z,0.80
2022-08-07T13:43:12.303Z,0.73
2022-08-07T13:46:12.412Z,0.90
2022-08-07T13:48:33.976Z,0.80
2022-08-07T13:51:02.476Z,0.73
2022-08-07T13:54:01.604Z,1.00
2022-08-07T13:56:36.404Z,0.77
2022-08-07T13:59:31.395Z,1.05
2022-08-07T14:02:10.245Z,0.80
2022-08-07T14:04:51.619Z,0.90
2022-08-07T14:07:27.605Z,1.10
2022-08-07T14:10:15.631Z,1.10
2022-08-07T14:12:55.666Z,0.90
2022-08-07T14:15:28.074Z,0.90
2022-08-07T14:18:28.501Z,0.75
2022-08-07T14:21:08.518Z,0.90
2022-08-07T14:24:01.328Z,0.95
2022-08-07T14:26:50.660Z,0.90
2022-08-07T14:30:09.298Z,1.00
2022-08-07T14:32:08.341Z,0.90
2022-08-07T14:34:46.426Z,0.93
2022-08-07T14:37:16.833Z,1.00
2022-08-07T14:40:16.566Z,1.02
2022-08-07T14:43:00.669Z,1.05
2022-08-07T14:45:24.887Z,0.90
2022-08-07T14:48:19.945Z,1.02
2022-08-07T14:50:50.946Z,0.82
2022-08-07T14:54:05.798Z,1.08
2022-08-07T14:56:08.168Z,0.90
2022-08-07T14:58:43.283Z,0.93
2022-08-07T15:01:21.676Z,1.00
2022-08-07T15:03:51.396Z,0.90
2022-08-07T15:06:23.751Z,0.80
2022-08-07T15:14:57.680Z,1.00
2022-08-07T15:17:32.766Z,1.05
2022-08-07T15:20:32.757Z,1.15
2022-08-07T15:23:20.551Z,0.80
2022-08-07T15:25:55.510Z,0.90
2022-08-07T15:28:34.174Z,1.10
2022-08-07T15:31:12.416Z,0.93
2022-08-07T15:34:00.707Z,0.93
2022-08-07T15:37:04.145Z,1.25
2022-08-07T15:39:14.689Z,1.10
2022-08-07T15:42:43.572Z,0.85
2022-08-07T15:44:51.975Z,1.10
2022-08-07T15:47:19.177Z,1.10
2022-08-07T15:50:05.004Z,1.13
2022-08-07T15:52:38.204Z,1.42
2022-08-07T15:55:11.281Z,1.15
2022-08-07T15:57:47.802Z,1.30
2022-08-07T16:00:31.418Z,1.50
2022-08-07T16:03:03.707Z,1.40
2022-08-07T16:05:30.966Z,1.40
2022-08-07T16:08:32.552Z,1.20
2022-08-07T16:11:26.437Z,1.27
2022-08-07T16:14:02.698Z,1.15
2022-08-07T16:16:57.202Z,5.18
2022-08-07T16:20:03.603Z,2.58
2022-08-07T16:23:05.426Z,1.67
2022-08-07T16:25:55.358Z,1.50
2022-08-07T16:30:07.193Z,1.50
2022-08-07T16:31:57.870Z,1.52
2022-08-07T16:34:48.320Z,1.67
2022-08-07T16:38:04.283Z,1.60
2022-08-07T16:40:28.362Z,1.40
2022-08-07T16:46:33.574Z,1.38
2022-08-07T16:50:27.973Z,1.63
2022-08-07T16:52:11.306Z,1.40
2022-08-07T16:55:13.094Z,1.60
2022-08-07T16:58:30.183Z,1.60
2022-08-07T17:01:36.054Z,1.20
2022-08-07T17:04:12.518Z,1.40
2022-08-07T17:07:03.245Z,1.63
2022-08-07T17:10:07.160Z,1.60
2022-08-07T17:12:39.840Z,1.55
2022-08-07T17:15:44.733Z,1.52
2022-08-07T17:18:26.202Z,1.50
2022-08-07T17:20:54.710Z,1.70
2022-08-07T17:23:41.369Z,1.58
2022-08-07T17:26:22.560Z,1.42
2022-08-07T17:30:13.093Z,1.60
2022-08-07T17:32:30.658Z,1.50
2022-08-07T17:35:33.165Z,1.40
2022-08-07T17:38:06.037Z,1.40
2022-08-07T17:40:50.521Z,1.40
2022-08-07T17:44:02.937Z,1.50
2022-08-07T17:48:49.040Z,1.60
2022-08-07T17:51:21.564Z,1.70
2022-08-07T17:54:06.185Z,1.88
2022-08-07T17:57:18.708Z,1.60
2022-08-07T17:59:50.596Z,1.90
2022-08-07T18:02:32.780Z,1.67
2022-08-07T18:05:21.350Z,1.50
2022-08-07T18:08:03.639Z,1.52
2022-08-07T18:12:07.303Z,1.60
2022-08-07T18:13:41.457Z,1.50
2022-08-07T18:16:31.142Z,1.70
2022-08-07T18:21:10.091Z,1.60
2022-08-07T18:22:32.209Z,1.77
2022-08-07T18:25:23.977Z,1.70
2022-08-07T18:27:53.715Z,1.77
2022-08-07T18:30:32.427Z,1.60
2022-08-07T18:33:55.116Z,1.77
2022-08-07T18:36:37.765Z,1.60
2022-08-07T18:40:06.952Z,1.67
2022-08-07T18:42:13.049Z,1.63
2022-08-07T18:45:40.290Z,1.60
2022-08-07T18:48:00.946Z,1.70
2022-08-07T18:50:46.717Z,1.70
2022-08-07T18:53:39.138Z,1.70
2022-08-07T18:59:48.027Z,1.70
2022-08-07T19:02:36.850Z,1.75
2022-08-07T19:05:15.646Z,1.60
2022-08-07T19:08:11.350Z,1.77
2022-08-07T19:10:51.697Z,1.80
2022-08-07T19:13:37.700Z,1.50
2022-08-07T19:17:00.355Z,1.85
2022-08-07T19:19:41.018Z,1.63
2022-08-07T19:22:12.822Z,1.70
2022-08-07T19:24:46.134Z,1.67
2022-08-07T19:28:56.784Z,1.67
2022-08-07T19:31:05.544Z,2.05
2022-08-07T19:33:10.145Z,2.00
2022-08-07T19:35:44.347Z,1.80
2022-08-07T19:38:15.884Z,1.80
2022-08-07T19:40:49.329Z,1.88
2022-08-07T19:43:49.183Z,1.85
2022-08-07T19:46:10.199Z,1.70
2022-08-07T19:48:42.633Z,1.90
2022-08-07T19:51:19.182Z,1.70
2022-08-07T19:54:44.184Z,2.00
2022-08-07T19:57:52.006Z,1.98
2022-08-07T19:59:40.919Z,1.98
2022-08-07T20:02:13.610Z,1.80
2022-08-07T20:04:49.407Z,1.85
2022-08-07T20:07:23.970Z,1.73
2022-08-07T20:10:35.994Z,1.80
2022-08-07T20:12:43.005Z,1.80
2022-08-07T20:15:19.071Z,1.83
2022-08-07T20:18:01.376Z,1.95
2022-08-07T20:20:31.035Z,1.80
2022-08-07T20:23:01.478Z,1.95
2022-08-07T20:25:53.046Z,1.85
2022-08-07T20:28:20.688Z,2.28
2022-08-07T20:30:56.448Z,1.60
2022-08-07T20:33:37.642Z,1.92
2022-08-07T20:36:06.836Z,2.05
2022-08-07T20:38:34.162Z,2.03
2022-08-07T20:41:03.835Z,2.35
2022-08-07T20:43:32.994Z,1.77
2022-08-07T20:46:26.875Z,1.98
2022-08-07T20:49:54.305Z,2.00
2022-08-07T20:51:40.288Z,1.90
2022-08-07T20:54:12.211Z,1.70
2022-08-07T20:56:46.123Z,1.60
2022-08-07T21:00:04.879Z,2.00
2022-08-07T21:02:23.218Z,2.00
2022-08-07T21:04:54.187Z,1.90
2022-08-07T21:07:28.757Z,2.08
2022-08-07T21:09:59.287Z,1.70
2022-08-07T21:12:31.062Z,2.05
2022-08-07T21:15:00.965Z,1.88
2022-08-07T21:18:02.092Z,1.80
2022-08-07T21:20:26.489Z,1.90
2022-08-07T21:22:58.179Z,2.00
2022-08-07T21:25:42.450Z,2.22
2022-08-07T21:28:18.892Z,2.25
2022-08-07T21:31:14.246Z,2.00
2022-08-07T21:33:46.782Z,2.22
2022-08-07T21:39:45.251Z,1.95
2022-08-07T21:45:42.125Z,2.20
2022-08-07T21:48:02.541Z,2.10
2022-08-07T21:50:45.603Z,2.00
2022-08-07T21:53:17.318Z,2.17
2022-08-07T21:55:59.970Z,1.83
2022-08-07T21:58:35.744Z,1.98
2022-08-07T22:01:08.424Z,1.92
2022-08-07T22:03:48.653Z,2.00
2022-08-07T22:06:30.060Z,2.67
2022-08-07T22:12:05.086Z,2.20
2022-08-07T22:14:23.793Z,2.20
2022-08-07T22:17:04.239Z,2.40
2022-08-07T22:19:34.505Z,2.42
2022-08-07T22:22:27.868Z,2.30
2022-08-07T22:25:10.964Z,2.55
2022-08-07T22:28:07.651Z,2.72
2022-08-07T22:31:05.600Z,2.33
2022-08-07T22:33:56.493Z,2.47
2022-08-07T22:36:48.612Z,2.63
2022-08-07T22:39:59.312Z,2.50
2022-08-07T22:42:29.543Z,2.60
2022-08-07T22:45:02.469Z,2.90
2022-08-07T22:47:54.616Z,2.63
2022-08-07T22:50:39.691Z,2.45
2022-08-07T22:54:06.747Z,2.72
2022-08-07T22:56:36.893Z,2.28
2022-08-07T22:59:32.664Z,2.50
2022-08-07T23:02:31.224Z,2.70
2022-08-07T23:06:06.832Z,2.78
2022-08-07T23:08:51.556Z,2.60
2022-08-07T23:11:45.986Z,3.10
2022-08-07T23:14:47.544Z,2.85
2022-08-07T23:17:54.557Z,2.53
2022-08-07T23:20:58.370Z,3.00
2022-08-07T23:24:05.567Z,2.47
2022-08-07T23:26:38.819Z,2.45
2022-08-07T23:29:43.955Z,2.90
2022-08-07T23:34:23.186Z,2.97
2022-08-07T23:35:14.603Z,3.05
2022-08-07T23:38:01.095Z,3.10
2022-08-07T23:40:39.893Z,2.78
2022-08-07T23:43:46.744Z,2.75
2022-08-07T23:46:36.364Z,3.03
2022-08-07T23:49:19.645Z,3.10
2022-08-07T23:53:08.780Z,3.40
2022-08-07T23:54:55.926Z,3.20
2022-08-07T23:57:44.588Z,3.30
